createdAt,value
2016-03-09T00:01:06.944Z,1011.88
2016-03-09T00:04:18.733Z,1011.88
2016-03-09T00:07:30.490Z,1011.88
2016-03-09T00:10:42.233Z,1011.84
2016-03-09T00:13:52.022Z,1011.88
2016-03-09T00:17:07.689Z,1011.9
2016-03-09T00:20:14.228Z,1012.08
2016-03-09T00:23:16.892Z,1011.94
2016-03-09T00:26:28.339Z,1011.96
2016-03-09T00:29:38.269Z,1011.98
2016-03-09T00:32:50.001Z,1012.06
2016-03-09T00:36:05.637Z,1012.12
2016-03-09T00:39:12.442Z,1012.12
2016-03-09T00:42:15.028Z,1012.04
2016-03-09T00:45:23.692Z,1012.12
2016-03-09T00:48:36.168Z,1012
2016-03-09T00:51:47.615Z,1012.1
2016-03-09T00:54:59.282Z,1012.12
2016-03-09T00:58:11.024Z,1012.04
2016-03-09T01:01:22.939Z,1012.1
2016-03-09T01:04:34.572Z,1011.94
2016-03-09T01:07:44.526Z,1011.98
2016-03-09T01:10:56.253Z,1011.98
2016-03-09T01:14:09.576Z,1012.02
2016-03-09T01:17:12.225Z,1012.02
2016-03-09T01:20:20.138Z,1011.96
2016-03-09T01:23:31.397Z,1012
2016-03-09T01:26:42.889Z,1012.02
2016-03-09T01:29:53.772Z,1011.94
2016-03-09T01:33:06.408Z,1011.92
2016-03-09T01:36:12.869Z,1011.92
2016-03-09T01:39:15.283Z,1011.86
2016-03-09T01:42:24.729Z,1011.86
2016-03-09T01:45:36.128Z,1011.82
2016-03-09T01:48:47.323Z,1011.74
2016-03-09T01:51:58.816Z,1011.84
2016-03-09T01:55:14.139Z,1011.76
2016-03-09T01:58:16.670Z,1011.76
2016-03-09T02:01:28.135Z,1011.8
2016-03-09T02:04:37.501Z,1011.7
2016-03-09T02:07:48.781Z,1011.64
2016-03-09T02:11:00.798Z,1011.66
2016-03-09T02:14:10.136Z,1011.63
2016-03-09T02:17:23.614Z,1011.66
2016-03-09T02:20:34.777Z,1011.61
2016-03-09T02:23:43.770Z,1011.43
2016-03-09T02:26:53.731Z,1011.49
2016-03-09T02:30:09.429Z,1011.55
2016-03-09T02:33:12.187Z,1011.43
2016-03-09T02:36:23.102Z,1011.37
2016-03-09T02:39:31.000Z,1011.55
2016-03-09T02:42:42.369Z,1011.41
2016-03-09T02:45:52.502Z,1011.37
2016-03-09T02:49:00.965Z,1011.33
2016-03-09T02:52:12.599Z,1011.31
2016-03-09T02:55:24.168Z,1011.27
2016-03-09T02:58:35.474Z,1011.19
2016-03-09T03:01:47.169Z,1011.21
2016-03-09T03:04:58.880Z,1011.17
2016-03-09T03:08:14.438Z,1011.27
2016-03-09T03:11:16.961Z,1011.21
2016-03-09T03:14:26.016Z,1011.27
2016-03-09T03:17:35.103Z,1011.29
2016-03-09T03:20:43.861Z,1011.37
2016-03-09T03:23:55.322Z,1011.37
2016-03-09T03:27:08.958Z,1011.31
2016-03-09T03:30:11.450Z,1011.29
2016-03-09T03:33:22.912Z,1011.27
2016-03-09T03:36:32.263Z,1011.23
2016-03-09T03:39:43.802Z,1011.19
2016-03-09T03:42:55.405Z,1011.23
2016-03-09T03:46:10.977Z,1011.23
2016-03-09T03:49:13.610Z,1011.31
2016-03-09T03:52:24.447Z,1011.15
2016-03-09T03:55:37.127Z,1011.13
2016-03-09T03:58:46.057Z,1011.21
2016-03-09T04:01:55.190Z,1011.23
2016-03-09T04:05:10.654Z,1011.27
2016-03-09T04:08:13.161Z,1011.17
2016-03-09T04:11:21.810Z,1011.21
2016-03-09T04:14:32.630Z,1011.15
2016-03-09T04:17:44.342Z,1011.27
2016-03-09T04:20:54.038Z,1011.17
2016-03-09T04:24:09.627Z,1011.17
2016-03-09T04:27:12.198Z,1011.25
2016-03-09T04:30:23.752Z,1011.19
2016-03-09T04:33:35.277Z,1011.23
2016-03-09T04:36:44.584Z,1011.21
2016-03-09T04:39:55.975Z,1011.21
2016-03-09T04:43:10.730Z,1011.17
2016-03-09T04:46:13.220Z,1011.19
2016-03-09T04:49:21.664Z,1011.09
2016-03-09T04:52:33.311Z,1011.13
2016-03-09T04:55:44.929Z,1011.23
2016-03-09T04:58:56.499Z,1011.15
2016-03-09T05:02:12.401Z,1011.27
2016-03-09T05:05:15.096Z,1011.09
2016-03-09T05:08:25.251Z,1011.07
2016-03-09T05:11:36.977Z,1011.21
2016-03-09T05:14:46.251Z,1011.27
2016-03-09T05:17:57.806Z,1011.23
2016-03-09T05:21:13.395Z,1011.41
2016-03-09T05:24:16.153Z,1011.27
2016-03-09T05:27:27.849Z,1011.27
2016-03-09T05:30:39.014Z,1011.21
2016-03-09T05:33:50.505Z,1011.19
2016-03-09T05:37:06.060Z,1011.13
2016-03-09T05:40:12.791Z,1011.25
2016-03-09T05:43:15.580Z,1011.27
2016-03-09T05:46:25.337Z,1011.19
2016-03-09T05:49:37.220Z,1011.13
2016-03-09T05:52:49.087Z,1011.13
2016-03-09T05:56:01.095Z,1011.17
2016-03-09T05:59:12.995Z,1011.21
2016-03-09T06:02:21.925Z,1011.07
2016-03-09T06:05:33.873Z,1011.03
2016-03-09T06:08:45.850Z,1011.09
2016-03-09T06:11:54.953Z,1010.85
2016-03-09T06:15:10.976Z,1011.07
2016-03-09T06:18:14.000Z,1011.05
2016-03-09T06:21:23.633Z,1011.03
2016-03-09T06:24:36.393Z,1011.05
2016-03-09T06:27:48.558Z,1010.99
2016-03-09T06:31:00.612Z,1010.93
2016-03-09T06:34:12.403Z,1010.91
2016-03-09T06:37:24.614Z,1010.81
2016-03-09T06:40:36.905Z,1010.75
2016-03-09T06:43:49.023Z,1010.71
2016-03-09T06:47:01.312Z,1010.71
2016-03-09T06:50:13.555Z,1010.69
2016-03-09T06:53:25.547Z,1010.67
2016-03-09T06:56:35.573Z,1009.82
2016-03-09T06:59:47.019Z,1009.68
2016-03-09T07:02:57.683Z,1009.5
2016-03-09T07:06:11.957Z,1009.64
2016-03-09T07:09:16.246Z,1009.66
2016-03-09T07:12:28.426Z,1009.52
2016-03-09T07:15:41.015Z,1009.56
2016-03-09T07:18:51.742Z,1009.68
2016-03-09T07:22:06.266Z,1009.56
2016-03-09T07:25:14.382Z,1009.44
2016-03-09T07:28:18.188Z,1009.93
2016-03-09T07:31:27.681Z,1009.8
2016-03-09T07:34:40.348Z,1010.05
2016-03-09T07:37:52.839Z,1009.99
2016-03-09T07:41:09.661Z,1009.87
2016-03-09T07:44:13.777Z,1009.72
2016-03-09T07:47:23.739Z,1009.76
2016-03-09T07:50:36.985Z,1009.34
2016-03-09T07:53:48.961Z,1008.62
2016-03-09T07:56:59.422Z,1008.43
2016-03-09T08:00:15.384Z,1008.26
2016-03-09T08:03:21.282Z,1008.16
2016-03-09T08:06:34.821Z,1008.02
2016-03-09T08:09:50.036Z,1007.95
2016-03-09T08:13:09.419Z,1007.95
2016-03-09T08:16:16.348Z,1007.85
2016-03-09T08:19:28.606Z,1007.85
2016-03-09T08:22:40.539Z,1007.89
2016-03-09T08:25:54.657Z,1007.67
2016-03-09T08:29:10.180Z,1007.77
2016-03-09T08:32:16.391Z,1007.57
2016-03-09T08:35:28.806Z,1007.41
2016-03-09T08:38:44.004Z,1007.65
2016-03-09T08:41:56.214Z,1007.75
2016-03-09T08:45:15.317Z,1007.53
2016-03-09T08:48:21.856Z,1007.47
2016-03-09T08:51:37.177Z,1007.49
2016-03-09T08:54:49.907Z,1007.39
2016-03-09T08:58:07.508Z,1007.39
2016-03-09T09:01:13.891Z,1007.45
2016-03-09T09:04:28.587Z,1007.45
2016-03-09T09:07:43.473Z,1007.59
2016-03-09T09:10:58.137Z,1007.53
2016-03-09T09:14:13.036Z,1007.83
2016-03-09T09:17:25.934Z,1008.18
2016-03-09T09:20:38.192Z,1008.18
2016-03-09T09:23:52.953Z,1007.73
2016-03-09T09:27:11.086Z,1007.59
2016-03-09T09:30:17.204Z,1007.57
2016-03-09T09:33:31.821Z,1007.41
2016-03-09T09:36:46.129Z,1007.43
2016-03-09T09:39:59.871Z,1007.45
2016-03-09T09:43:14.504Z,1007.49
2016-03-09T09:46:29.075Z,1007.43
2016-03-09T09:49:41.148Z,1007.59
2016-03-09T09:52:53.000Z,1007.57
2016-03-09T09:56:11.117Z,1007.98
2016-03-09T09:59:16.594Z,1008.48
2016-03-09T10:02:30.571Z,1008.62
2016-03-09T10:05:44.223Z,1008.7
2016-03-09T10:08:57.378Z,1008.76
2016-03-09T10:12:11.933Z,1008.88
2016-03-09T10:15:16.363Z,1008.92
2016-03-09T10:18:28.652Z,1008.98
2016-03-09T10:21:38.832Z,1009
2016-03-09T10:24:50.671Z,1009.16
2016-03-09T10:28:08.023Z,1009.14
2016-03-09T10:31:12.484Z,1009.24
2016-03-09T10:34:22.601Z,1009.26
2016-03-09T10:37:36.266Z,1009.38
2016-03-09T10:40:49.777Z,1009.5
2016-03-09T10:44:00.394Z,1009.52
2016-03-09T10:47:14.105Z,1009.54
2016-03-09T10:50:28.066Z,1009.62
2016-03-09T10:53:41.387Z,1009.7
2016-03-09T10:56:55.554Z,1009.48
2016-03-09T11:00:11.218Z,1009.46
2016-03-09T11:03:16.882Z,1009.64
2016-03-09T11:06:31.234Z,1009.48
2016-03-09T11:09:45.433Z,1009.5
2016-03-09T11:12:58.472Z,1009.46
2016-03-09T11:16:16.355Z,1009.5
2016-03-09T11:19:21.754Z,1009.5
2016-03-09T11:22:35.777Z,1009.4
2016-03-09T11:25:47.335Z,1009.28
2016-03-09T11:29:00.687Z,1009.36
2016-03-09T11:32:15.132Z,1009.26
2016-03-09T11:35:20.453Z,1009.28
2016-03-09T11:38:34.617Z,1009.12
2016-03-09T11:41:47.394Z,1009.16
2016-03-09T11:45:00.980Z,1009.22
2016-03-09T11:48:14.316Z,1009.12
2016-03-09T11:51:27.761Z,1009.18
2016-03-09T11:54:39.255Z,1009.14
2016-03-09T11:57:52.718Z,1009.18
2016-03-09T12:01:09.866Z,1009.08
2016-03-09T12:04:14.765Z,1009.1
2016-03-09T12:07:28.054Z,1009.18
2016-03-09T12:10:41.187Z,1009.14
2016-03-09T12:13:54.698Z,1009.04
2016-03-09T12:17:08.925Z,1008.92
2016-03-09T12:20:13.574Z,1008.98
2016-03-09T12:23:26.785Z,1008.94
2016-03-09T12:26:38.278Z,1008.9
2016-03-09T12:29:49.335Z,1008.84
2016-03-09T12:33:02.437Z,1008.82
2016-03-09T12:36:13.336Z,1008.8
2016-03-09T12:39:26.187Z,1008.78
2016-03-09T12:42:39.070Z,1008.72
2016-03-09T12:45:50.425Z,1008.74
2016-03-09T12:49:02.792Z,1008.62
2016-03-09T12:52:13.004Z,1008.86
2016-03-09T12:55:25.808Z,1008.68
2016-03-09T12:58:38.457Z,1008.64
2016-03-09T13:01:51.343Z,1008.54
2016-03-09T13:05:01.726Z,1008.58
2016-03-09T13:08:16.781Z,1008.58
2016-03-09T13:11:20.851Z,1008.64
2016-03-09T13:14:33.266Z,1008.54
2016-03-09T13:17:46.089Z,1008.7
2016-03-09T13:20:58.347Z,1008.54
2016-03-09T13:24:15.136Z,1008.56
2016-03-09T13:27:19.067Z,1008.43
2016-03-09T13:30:30.137Z,1008.43
2016-03-09T13:33:39.848Z,1008.64
2016-03-09T13:36:52.539Z,1008.48
2016-03-09T13:40:01.909Z,1008.32
2016-03-09T13:43:14.700Z,1008.38
2016-03-09T13:46:24.358Z,1008.34
2016-03-09T13:49:36.877Z,1008.3
2016-03-09T13:52:46.837Z,1008.24
2016-03-09T13:55:59.751Z,1008.3
2016-03-09T13:59:14.166Z,1008.26
2016-03-09T14:02:18.142Z,1008.18
2016-03-09T14:05:28.822Z,1008.26
2016-03-09T14:08:39.252Z,1008.24
2016-03-09T14:11:51.748Z,1008.22
2016-03-09T14:15:08.162Z,1008.18
2016-03-09T14:18:15.952Z,1008.34
2016-03-09T14:21:19.709Z,1008.26
2016-03-09T14:24:32.186Z,1008.04
2016-03-09T14:27:44.745Z,1008.12
2016-03-09T14:30:55.345Z,1008.12
2016-03-09T14:34:08.369Z,1008.1
2016-03-09T14:37:16.174Z,1008.16
2016-03-09T14:40:19.901Z,1008.14
2016-03-09T14:43:32.456Z,1008.1
2016-03-09T14:46:43.636Z,1008.06
2016-03-09T14:49:56.428Z,1007.98
2016-03-09T14:53:10.170Z,1008
2016-03-09T14:56:14.054Z,1008.16
2016-03-09T14:59:23.656Z,1007.97
2016-03-09T15:02:36.382Z,1008.06
2016-03-09T15:05:49.205Z,1007.98
2016-03-09T15:09:01.902Z,1008.06
2016-03-09T15:12:14.565Z,1007.98
2016-03-09T15:15:27.401Z,1007.97
2016-03-09T15:18:39.925Z,1007.97
2016-03-09T15:21:52.623Z,1008
2016-03-09T15:25:09.240Z,1007.87
2016-03-09T15:28:13.249Z,1008
2016-03-09T15:31:26.211Z,1008.06
2016-03-09T15:34:38.890Z,1007.98
2016-03-09T15:37:51.150Z,1008.06
2016-03-09T15:41:03.409Z,1007.98
2016-03-09T15:44:16.246Z,1007.83
2016-03-09T15:47:28.909Z,1007.93
2016-03-09T15:50:41.715Z,1007.83
2016-03-09T15:53:51.600Z,1007.81
2016-03-09T15:57:08.514Z,1007.91
2016-03-09T16:00:16.398Z,1007.91
2016-03-09T16:03:20.156Z,1007.79
2016-03-09T16:06:30.850Z,1007.89
2016-03-09T16:09:43.625Z,1007.83
2016-03-09T16:12:53.589Z,1007.83
2016-03-09T16:16:10.175Z,1007.93
2016-03-09T16:19:14.058Z,1008.02
2016-03-09T16:22:24.393Z,1008.02
2016-03-09T16:25:37.245Z,1008.04
2016-03-09T16:28:49.757Z,1008.08
2016-03-09T16:32:02.406Z,1008.1
2016-03-09T16:35:16.522Z,1008.22
2016-03-09T16:38:20.281Z,1008.26
2016-03-09T16:41:32.304Z,1008.3
2016-03-09T16:44:43.109Z,1008.34
2016-03-09T16:47:55.918Z,1008.32
2016-03-09T16:51:11.066Z,1008.36
2016-03-09T16:54:14.964Z,1008.46
2016-03-09T16:57:27.285Z,1008.46
2016-03-09T17:00:39.184Z,1008.48
2016-03-09T17:03:51.711Z,1008.52
2016-03-09T17:07:08.156Z,1008.56
2016-03-09T17:10:15.741Z,1008.62
2016-03-09T17:13:19.421Z,1008.8
2016-03-09T17:16:28.602Z,1008.72
2016-03-09T17:19:37.438Z,1008.68
2016-03-09T17:22:51.340Z,1008.72
2016-03-09T17:26:03.848Z,1008.72
2016-03-09T17:29:16.183Z,1008.88
2016-03-09T17:32:26.956Z,1008.78
2016-03-09T17:35:37.184Z,1008.86
2016-03-09T17:38:49.663Z,1008.86
2016-03-09T17:42:02.171Z,1008.88
2016-03-09T17:45:14.352Z,1008.92
2016-03-09T17:48:27.047Z,1009.02
2016-03-09T17:51:39.493Z,1009.02
2016-03-09T17:54:52.144Z,1009.16
2016-03-09T17:58:08.823Z,1009.14
2016-03-09T18:01:16.300Z,1009.08
2016-03-09T18:04:19.825Z,1009.18
2016-03-09T18:07:32.145Z,1009.12
2016-03-09T18:10:42.044Z,1009.18
2016-03-09T18:13:54.366Z,1009.22
2016-03-09T18:17:08.671Z,1009.26
2016-03-09T18:20:16.024Z,1009.3
2016-03-09T18:23:19.454Z,1009.36
2016-03-09T18:26:31.509Z,1009.32
2016-03-09T18:29:40.767Z,1009.38
2016-03-09T18:32:51.200Z,1009.38
2016-03-09T18:36:03.364Z,1009.48
2016-03-09T18:39:16.778Z,1009.38
2016-03-09T18:42:20.099Z,1009.5
2016-03-09T18:45:32.325Z,1009.5
2016-03-09T18:48:44.193Z,1009.52
2016-03-09T18:51:55.265Z,1009.5
2016-03-09T18:55:11.665Z,1009.44
2016-03-09T18:58:14.876Z,1009.48
2016-03-09T19:01:26.415Z,1009.54
2016-03-09T19:04:37.767Z,1009.56
2016-03-09T19:07:48.919Z,1009.48
2016-03-09T19:10:59.927Z,1009.56
2016-03-09T19:14:15.162Z,1009.52
2016-03-09T19:17:17.300Z,1009.62
2016-03-09T19:20:25.388Z,1009.56
2016-03-09T19:23:33.864Z,1009.58
2016-03-09T19:26:45.008Z,1009.64
2016-03-09T19:29:55.675Z,1009.6
2016-03-09T19:33:08.869Z,1009.56
2016-03-09T19:36:15.144Z,1009.64
2016-03-09T19:39:17.293Z,1009.64
2016-03-09T19:42:26.929Z,1009.62
2016-03-09T19:45:37.908Z,1009.64
2016-03-09T19:48:46.183Z,1009.62
2016-03-09T19:51:56.709Z,1009.58
2016-03-09T19:55:11.463Z,1009.62
2016-03-09T19:58:18.134Z,1009.7
2016-03-09T20:01:20.902Z,1009.76
2016-03-09T20:04:32.343Z,1009.7
2016-03-09T20:07:43.512Z,1009.82
2016-03-09T20:10:54.032Z,1009.87
2016-03-09T20:14:02.479Z,1009.89
2016-03-09T20:17:17.541Z,1009.87
2016-03-09T20:20:19.638Z,1009.93
2016-03-09T20:23:30.548Z,1009.97
2016-03-09T20:26:41.792Z,1009.91
2016-03-09T20:29:52.790Z,1009.91
2016-03-09T20:33:04.766Z,1009.99
2016-03-09T20:36:19.737Z,1009.93
2016-03-09T20:39:22.089Z,1009.82
2016-03-09T20:42:32.910Z,1009.93
2016-03-09T20:45:43.558Z,1009.8
2016-03-09T20:48:54.071Z,1009.99
2016-03-09T20:52:05.287Z,1009.99
2016-03-09T20:55:16.566Z,1009.99
2016-03-09T20:58:22.989Z,1009.97
2016-03-09T21:01:35.167Z,1009.93
2016-03-09T21:04:44.203Z,1010.07
2016-03-09T21:07:55.281Z,1010.03
2016-03-09T21:11:10.314Z,1010.03
2016-03-09T21:14:16.496Z,1010.11
2016-03-09T21:17:18.711Z,1010.07
2016-03-09T21:20:30.078Z,1010.01
2016-03-09T21:23:40.989Z,1010.13
2016-03-09T21:26:52.301Z,1010.11
2016-03-09T21:30:01.771Z,1010.07
2016-03-09T21:33:14.832Z,1010.05
2016-03-09T21:36:17.053Z,1010.05
2016-03-09T21:39:28.083Z,1010.17
2016-03-09T21:42:39.357Z,1010.15
2016-03-09T21:45:50.620Z,1010.27
2016-03-09T21:49:01.939Z,1010.23
2016-03-09T21:52:17.402Z,1010.15
2016-03-09T21:55:19.472Z,1010.29
2016-03-09T21:58:30.213Z,1010.25
2016-03-09T22:01:41.707Z,1010.21
2016-03-09T22:04:53.139Z,1010.25
2016-03-09T22:08:01.535Z,1010.29
2016-03-09T22:11:17.825Z,1010.33
2016-03-09T22:14:20.239Z,1010.29
2016-03-09T22:17:31.559Z,1010.25
2016-03-09T22:20:42.849Z,1010.25
2016-03-09T22:23:53.968Z,1010.37
2016-03-09T22:27:01.820Z,1010.25
2016-03-09T22:30:15.235Z,1010.21
2016-03-09T22:33:21.649Z,1010.21
2016-03-09T22:36:24.220Z,1010.27
2016-03-09T22:39:35.540Z,1010.27
2016-03-09T22:42:47.179Z,1010.21
2016-03-09T22:45:57.974Z,1010.23
2016-03-09T22:49:06.014Z,1010.29
2016-03-09T22:52:21.249Z,1010.23
2016-03-09T22:55:23.956Z,1010.39
2016-03-09T22:58:33.259Z,1010.31
2016-03-09T23:01:43.124Z,1010.21
2016-03-09T23:04:54.338Z,1010.33
2016-03-09T23:08:05.690Z,1010.37
2016-03-09T23:11:21.151Z,1010.27
2016-03-09T23:14:23.706Z,1010.41
2016-03-09T23:17:33.573Z,1010.43
2016-03-09T23:20:42.691Z,1010.39
2016-03-09T23:23:52.592Z,1010.51
2016-03-09T23:27:03.568Z,1010.51
2016-03-09T23:30:19.355Z,1010.63
2016-03-09T23:33:21.988Z,1010.49
2016-03-09T23:36:33.574Z,1010.71
2016-03-09T23:39:45.238Z,1010.63
2016-03-09T23:42:53.952Z,1010.57
2016-03-09T23:46:05.273Z,1010.57
2016-03-09T23:49:19.171Z,1010.67
2016-03-09T23:52:21.664Z,1010.65
2016-03-09T23:55:33.126Z,1010.49
2016-03-09T23:58:44.258Z,1010.63
